T7GPM LIRZ-LATI
Flight info
| Callsign | T7GPM |
|---|---|
| Flight time | 1h 15m |
| Altitude | 36000 |
| Route | GITOD5N GITOD DCT INTUD DCT GARGA/N0333F370 DCT VAKSU DCT PETAK PETAK3M |
| Aircraft | P180/L-SDE3FGHIRWY/C |
Departure
| Time | 2026-04-28 19:53 |
|---|---|
| Airport | Perugia San Francesco d'Assisi – Umbria International Airport (LIRZ) |
Arrival
| Time | 2026-04-28 21:09 |
|---|---|
| Airport | Tirana International Airport Mother Teresa (LATI) |
| Time | Latitude | Longitude | Altitude | Speed | Heading |
|---|---|---|---|---|---|
| 2026-04-28 19:22 | 43.09568 | 12.50350 | 682 ft | 0 kts | 249° |
| 2026-04-28 19:45 | 43.09567 | 12.50349 | 682 ft | 1 kts | 245° |
| 2026-04-28 19:46 | 43.09554 | 12.50350 | 679 ft | 4 kts | 137° |
| 2026-04-28 19:46 | 43.09541 | 12.50401 | 680 ft | 8 kts | 110° |
| 2026-04-28 19:46 | 43.09548 | 12.50482 | 679 ft | 9 kts | 70° |
| 2026-04-28 19:46 | 43.09577 | 12.50569 | 682 ft | 11 kts | 65° |
| 2026-04-28 19:47 | 43.09609 | 12.50666 | 680 ft | 12 kts | 65° |
| 2026-04-28 19:47 | 43.09644 | 12.50772 | 683 ft | 13 kts | 65° |
| 2026-04-28 19:47 | 43.09683 | 12.50888 | 684 ft | 14 kts | 66° |
| 2026-04-28 19:47 | 43.09723 | 12.51014 | 684 ft | 15 kts | 66° |
| 2026-04-28 19:48 | 43.09770 | 12.51145 | 682 ft | 16 kts | 46° |
| 2026-04-28 19:48 | 43.09876 | 12.51190 | 686 ft | 16 kts | 14° |
| 2026-04-28 19:48 | 43.09985 | 12.51228 | 684 ft | 16 kts | 15° |
| 2026-04-28 19:48 | 43.10094 | 12.51266 | 688 ft | 16 kts | 14° |
| 2026-04-28 19:49 | 43.10204 | 12.51305 | 690 ft | 16 kts | 14° |
| 2026-04-28 19:49 | 43.10314 | 12.51343 | 691 ft | 16 kts | 14° |
| 2026-04-28 19:49 | 43.10425 | 12.51382 | 691 ft | 17 kts | 14° |
| 2026-04-28 19:49 | 43.10537 | 12.51421 | 691 ft | 17 kts | 14° |
| 2026-04-28 19:50 | 43.10746 | 12.51494 | 695 ft | 8 kts | 17° |
| 2026-04-28 19:50 | 43.10782 | 12.51556 | 695 ft | 10 kts | 85° |
| 2026-04-28 19:50 | 43.10778 | 12.51589 | 693 ft | 0 kts | 105° |
| 2026-04-28 19:52 | 43.10766 | 12.51648 | 684 ft | 13 kts | 104° |
| 2026-04-28 19:52 | 43.10698 | 12.51708 | 679 ft | 0 kts | 193° |
| 2026-04-28 19:52 | 43.10584 | 12.51668 | 679 ft | 50 kts | 194° |
| 2026-04-28 19:53 | 43.09915 | 12.51433 | 677 ft | 140 kts | 194° |
| 2026-04-28 19:53 | 43.08858 | 12.51060 | 987 ft | 170 kts | 195° |
| 2026-04-28 19:53 | 43.07706 | 12.50653 | 1377 ft | 168 kts | 195° |
| 2026-04-28 19:53 | 43.06557 | 12.50244 | 1666 ft | 178 kts | 195° |
| 2026-04-28 19:54 | 43.05302 | 12.49788 | 1949 ft | 194 kts | 195° |
| 2026-04-28 19:54 | 43.03962 | 12.49295 | 2240 ft | 203 kts | 195° |
| 2026-04-28 19:54 | 43.02586 | 12.48785 | 2534 ft | 210 kts | 195° |
| 2026-04-28 19:54 | 43.01165 | 12.48255 | 2829 ft | 213 kts | 195° |
| 2026-04-28 19:55 | 42.99722 | 12.47712 | 3127 ft | 216 kts | 195° |
| 2026-04-28 19:55 | 42.98265 | 12.47158 | 3425 ft | 217 kts | 195° |
| 2026-04-28 19:55 | 42.96805 | 12.46593 | 3726 ft | 219 kts | 196° |
| 2026-04-28 19:55 | 42.95337 | 12.46019 | 4023 ft | 220 kts | 195° |
| 2026-04-28 19:56 | 42.93860 | 12.45433 | 4322 ft | 221 kts | 195° |
| 2026-04-28 19:56 | 42.92382 | 12.44835 | 4631 ft | 222 kts | 195° |
| 2026-04-28 19:56 | 42.90906 | 12.44234 | 4937 ft | 222 kts | 196° |
| 2026-04-28 19:56 | 42.89394 | 12.43612 | 5017 ft | 233 kts | 196° |
| 2026-04-28 19:57 | 42.87810 | 12.42960 | 5032 ft | 242 kts | 196° |
| 2026-04-28 19:57 | 42.86178 | 12.42289 | 5036 ft | 247 kts | 196° |
| 2026-04-28 19:57 | 42.84519 | 12.41608 | 5040 ft | 251 kts | 196° |
| 2026-04-28 19:57 | 42.82856 | 12.40924 | 5042 ft | 254 kts | 196° |
| 2026-04-28 19:58 | 42.81159 | 12.40223 | 5040 ft | 255 kts | 196° |
| 2026-04-28 19:58 | 42.79455 | 12.39516 | 5043 ft | 256 kts | 196° |
| 2026-04-28 19:58 | 42.77749 | 12.38807 | 5043 ft | 256 kts | 196° |
| 2026-04-28 19:58 | 42.76040 | 12.38090 | 5041 ft | 257 kts | 196° |
| 2026-04-28 19:59 | 42.74333 | 12.37377 | 5045 ft | 256 kts | 196° |
| 2026-04-28 19:59 | 42.72590 | 12.36967 | 5032 ft | 255 kts | 177° |
| 2026-04-28 19:59 | 42.71026 | 12.37935 | 5025 ft | 257 kts | 136° |
| 2026-04-28 19:59 | 42.69985 | 12.39917 | 5032 ft | 259 kts | 123° |
| 2026-04-28 20:00 | 42.68951 | 12.41904 | 5027 ft | 256 kts | 136° |
| 2026-04-28 20:00 | 42.67416 | 12.43069 | 5032 ft | 254 kts | 160° |
| 2026-04-28 20:00 | 42.65782 | 12.43965 | 5108 ft | 251 kts | 151° |
| 2026-04-28 20:00 | 42.64543 | 12.45580 | 5367 ft | 245 kts | 130° |
| 2026-04-28 20:01 | 42.63460 | 12.47325 | 5635 ft | 239 kts | 135° |
| 2026-04-28 20:01 | 42.62189 | 12.48700 | 5907 ft | 235 kts | 150° |
| 2026-04-28 20:01 | 42.60703 | 12.49613 | 6186 ft | 233 kts | 158° |
| 2026-04-28 20:01 | 42.59301 | 12.50737 | 6394 ft | 235 kts | 146° |
| 2026-04-28 20:02 | 42.57935 | 12.51931 | 6710 ft | 231 kts | 150° |
| 2026-04-28 20:02 | 42.56580 | 12.53085 | 7045 ft | 228 kts | 148° |
| 2026-04-28 20:02 | 42.55285 | 12.54323 | 7382 ft | 227 kts | 145° |
| 2026-04-28 20:02 | 42.54020 | 12.55604 | 7723 ft | 228 kts | 145° |
| 2026-04-28 20:03 | 42.52737 | 12.56856 | 8067 ft | 227 kts | 146° |
| 2026-04-28 20:03 | 42.51427 | 12.58063 | 8416 ft | 227 kts | 147° |
| 2026-04-28 20:03 | 42.50118 | 12.59252 | 8765 ft | 231 kts | 147° |
| 2026-04-28 20:03 | 42.48833 | 12.60581 | 9121 ft | 234 kts | 139° |
| 2026-04-28 20:04 | 42.47783 | 12.62281 | 9480 ft | 238 kts | 122° |
| 2026-04-28 20:04 | 42.47175 | 12.64390 | 9850 ft | 242 kts | 107° |
| 2026-04-28 20:04 | 42.46866 | 12.66642 | 10191 ft | 245 kts | 96° |
| 2026-04-28 20:04 | 42.46801 | 12.68962 | 10528 ft | 247 kts | 92° |
| 2026-04-28 20:05 | 42.46769 | 12.71297 | 10864 ft | 248 kts | 93° |
| 2026-04-28 20:05 | 42.46677 | 12.73606 | 11199 ft | 249 kts | 95° |
| 2026-04-28 20:05 | 42.46585 | 12.75193 | 11437 ft | 250 kts | 96° |
| 2026-04-28 20:05 | 42.46446 | 12.77545 | 11785 ft | 251 kts | 95° |
| 2026-04-28 20:06 | 42.46305 | 12.80671 | 12243 ft | 252 kts | 94° |
| 2026-04-28 20:06 | 42.46218 | 12.83042 | 12598 ft | 253 kts | 94° |
| 2026-04-28 20:06 | 42.46117 | 12.85430 | 12956 ft | 254 kts | 94° |
| 2026-04-28 20:06 | 42.46039 | 12.87046 | 13207 ft | 254 kts | 94° |
| 2026-04-28 20:07 | 42.45881 | 12.90214 | 13692 ft | 255 kts | 94° |
| 2026-04-28 20:07 | 42.45843 | 12.91024 | 13811 ft | 255 kts | 94° |
| 2026-04-28 20:07 | 42.45704 | 12.94204 | 14256 ft | 255 kts | 93° |
| 2026-04-28 20:07 | 42.45600 | 12.96602 | 14588 ft | 255 kts | 94° |
| 2026-04-28 20:08 | 42.45487 | 12.99001 | 14916 ft | 255 kts | 94° |
| 2026-04-28 20:08 | 42.45371 | 13.01397 | 15252 ft | 254 kts | 94° |
| 2026-04-28 20:08 | 42.45258 | 13.03780 | 15591 ft | 253 kts | 94° |
| 2026-04-28 20:08 | 42.45151 | 13.06157 | 15941 ft | 252 kts | 94° |
| 2026-04-28 20:09 | 42.45037 | 13.08524 | 16295 ft | 251 kts | 94° |
| 2026-04-28 20:09 | 42.44924 | 13.10879 | 16639 ft | 251 kts | 94° |
| 2026-04-28 20:09 | 42.44816 | 13.13214 | 16991 ft | 251 kts | 94° |
| 2026-04-28 20:09 | 42.44703 | 13.15564 | 17346 ft | 249 kts | 94° |
| 2026-04-28 20:10 | 42.44588 | 13.17911 | 17709 ft | 250 kts | 94° |
| 2026-04-28 20:10 | 42.44475 | 13.20273 | 18079 ft | 251 kts | 94° |
| 2026-04-28 20:10 | 42.44362 | 13.22630 | 18437 ft | 251 kts | 94° |
| 2026-04-28 20:10 | 42.44246 | 13.24996 | 18760 ft | 252 kts | 94° |
| 2026-04-28 20:11 | 42.44131 | 13.27364 | 19087 ft | 251 kts | 93° |
| 2026-04-28 20:11 | 42.44014 | 13.29725 | 19417 ft | 251 kts | 94° |
| 2026-04-28 20:11 | 42.43900 | 13.32088 | 19751 ft | 252 kts | 93° |
| 2026-04-28 20:11 | 42.43783 | 13.34454 | 20088 ft | 251 kts | 94° |
| 2026-04-28 20:12 | 42.43664 | 13.36817 | 20428 ft | 252 kts | 94° |
| 2026-04-28 20:12 | 42.43547 | 13.39176 | 20775 ft | 251 kts | 94° |
| 2026-04-28 20:12 | 42.43430 | 13.41507 | 21118 ft | 251 kts | 94° |
| 2026-04-28 20:12 | 42.43311 | 13.43864 | 21472 ft | 251 kts | 94° |
| 2026-04-28 20:13 | 42.43192 | 13.46227 | 21831 ft | 251 kts | 94° |
| 2026-04-28 20:13 | 42.43075 | 13.48587 | 22182 ft | 251 kts | 94° |
| 2026-04-28 20:13 | 42.42953 | 13.50983 | 22417 ft | 259 kts | 94° |
| 2026-04-28 20:13 | 42.42823 | 13.53461 | 22665 ft | 271 kts | 94° |
| 2026-04-28 20:14 | 42.42691 | 13.55975 | 22908 ft | 271 kts | 93° |
| 2026-04-28 20:14 | 42.42562 | 13.58536 | 23156 ft | 274 kts | 93° |
| 2026-04-28 20:14 | 42.42432 | 13.61124 | 23406 ft | 276 kts | 93° |
| 2026-04-28 20:14 | 42.42295 | 13.63730 | 23650 ft | 278 kts | 94° |
| 2026-04-28 20:15 | 42.42155 | 13.66355 | 23858 ft | 280 kts | 94° |
| 2026-04-28 20:15 | 42.42016 | 13.68996 | 24067 ft | 282 kts | 93° |
| 2026-04-28 20:15 | 42.41879 | 13.71655 | 24274 ft | 284 kts | 93° |
| 2026-04-28 20:15 | 42.41738 | 13.74336 | 24489 ft | 286 kts | 94° |
| 2026-04-28 20:16 | 42.41593 | 13.77027 | 24701 ft | 288 kts | 94° |
| 2026-04-28 20:16 | 42.41446 | 13.79735 | 24902 ft | 289 kts | 93° |
| 2026-04-28 20:16 | 42.41303 | 13.82425 | 25120 ft | 292 kts | 93° |
| 2026-04-28 20:16 | 42.41156 | 13.85180 | 25341 ft | 295 kts | 94° |
| 2026-04-28 20:17 | 42.41005 | 13.87970 | 25567 ft | 299 kts | 93° |
| 2026-04-28 20:17 | 42.40850 | 13.90789 | 25791 ft | 302 kts | 93° |
| 2026-04-28 20:17 | 42.40694 | 13.93634 | 26003 ft | 305 kts | 93° |
| 2026-04-28 20:17 | 42.40538 | 13.96513 | 26230 ft | 308 kts | 93° |
| 2026-04-28 20:18 | 42.40381 | 13.99414 | 26458 ft | 311 kts | 93° |
| 2026-04-28 20:18 | 42.40273 | 14.01353 | 26612 ft | 313 kts | 93° |
| 2026-04-28 20:18 | 42.40050 | 14.05299 | 26919 ft | 316 kts | 93° |
| 2026-04-28 20:18 | 42.39883 | 14.08279 | 27132 ft | 319 kts | 93° |
| 2026-04-28 20:19 | 42.39716 | 14.11292 | 27368 ft | 321 kts | 93° |
| 2026-04-28 20:19 | 42.39550 | 14.14275 | 27601 ft | 323 kts | 93° |
| 2026-04-28 20:19 | 42.39377 | 14.17319 | 27840 ft | 325 kts | 93° |
| 2026-04-28 20:19 | 42.39199 | 14.20379 | 28079 ft | 328 kts | 93° |
| 2026-04-28 20:20 | 42.39021 | 14.23462 | 28319 ft | 330 kts | 93° |
| 2026-04-28 20:20 | 42.38844 | 14.26561 | 28564 ft | 331 kts | 93° |
| 2026-04-28 20:20 | 42.38667 | 14.29689 | 28811 ft | 333 kts | 93° |
| 2026-04-28 20:20 | 42.38486 | 14.32824 | 29061 ft | 336 kts | 93° |
| 2026-04-28 20:21 | 42.38300 | 14.35981 | 29316 ft | 337 kts | 93° |
| 2026-04-28 20:21 | 42.38112 | 14.39151 | 29568 ft | 340 kts | 93° |
| 2026-04-28 20:21 | 42.37923 | 14.42343 | 29824 ft | 342 kts | 93° |
| 2026-04-28 20:21 | 42.37735 | 14.45554 | 30144 ft | 342 kts | 93° |
| 2026-04-28 20:22 | 42.37549 | 14.48745 | 30479 ft | 339 kts | 93° |
| 2026-04-28 20:22 | 42.37359 | 14.51923 | 30824 ft | 337 kts | 93° |
| 2026-04-28 20:22 | 42.37166 | 14.55078 | 31165 ft | 335 kts | 93° |
| 2026-04-28 20:22 | 42.36977 | 14.58166 | 31508 ft | 332 kts | 93° |
| 2026-04-28 20:23 | 42.36790 | 14.61279 | 31862 ft | 329 kts | 92° |
| 2026-04-28 20:23 | 42.36608 | 14.64352 | 32223 ft | 326 kts | 92° |
| 2026-04-28 20:23 | 42.36422 | 14.67397 | 32571 ft | 323 kts | 92° |
| 2026-04-28 20:23 | 42.36232 | 14.70411 | 32936 ft | 320 kts | 92° |
| 2026-04-28 20:24 | 42.36045 | 14.73395 | 33309 ft | 316 kts | 92° |
| 2026-04-28 20:24 | 42.35868 | 14.76301 | 33670 ft | 312 kts | 92° |
| 2026-04-28 20:24 | 42.35692 | 14.79205 | 34044 ft | 307 kts | 92° |
| 2026-04-28 20:24 | 42.35513 | 14.82067 | 34371 ft | 303 kts | 92° |
| 2026-04-28 20:25 | 42.35334 | 14.84881 | 34693 ft | 298 kts | 92° |
| 2026-04-28 20:25 | 42.35158 | 14.87644 | 35021 ft | 292 kts | 92° |
| 2026-04-28 20:25 | 42.34989 | 14.90360 | 35352 ft | 287 kts | 92° |
| 2026-04-28 20:25 | 42.34823 | 14.93043 | 35692 ft | 285 kts | 93° |
| 2026-04-28 20:26 | 42.34654 | 14.95702 | 36013 ft | 283 kts | 93° |
| 2026-04-28 20:26 | 42.34479 | 14.98405 | 36038 ft | 294 kts | 93° |
| 2026-04-28 20:26 | 42.34298 | 15.01231 | 36052 ft | 308 kts | 93° |
| 2026-04-28 20:26 | 42.34110 | 15.04172 | 36061 ft | 319 kts | 93° |
| 2026-04-28 20:27 | 42.33917 | 15.07163 | 36057 ft | 328 kts | 94° |
| 2026-04-28 20:27 | 42.33504 | 15.13473 | 36055 ft | 345 kts | 94° |
| 2026-04-28 20:28 | 42.33072 | 15.20078 | 36059 ft | 360 kts | 94° |
| 2026-04-28 20:28 | 42.32617 | 15.26966 | 36055 ft | 373 kts | 94° |
| 2026-04-28 20:29 | 42.32140 | 15.34019 | 36057 ft | 385 kts | 94° |
| 2026-04-28 20:29 | 42.31656 | 15.41325 | 36046 ft | 395 kts | 94° |
| 2026-04-28 20:30 | 42.31140 | 15.48805 | 36047 ft | 403 kts | 94° |
| 2026-04-28 20:30 | 42.30616 | 15.56413 | 36057 ft | 409 kts | 94° |
| 2026-04-28 20:31 | 42.30094 | 15.64081 | 36056 ft | 414 kts | 94° |
| 2026-04-28 20:31 | 42.29533 | 15.71874 | 36058 ft | 418 kts | 94° |
| 2026-04-28 20:32 | 42.28987 | 15.79723 | 36058 ft | 421 kts | 94° |
| 2026-04-28 20:32 | 42.28428 | 15.87612 | 36061 ft | 423 kts | 94° |
| 2026-04-28 20:33 | 42.27838 | 15.95536 | 36060 ft | 424 kts | 94° |
| 2026-04-28 20:33 | 42.27227 | 16.03462 | 36058 ft | 425 kts | 97° |
| 2026-04-28 20:34 | 42.26117 | 16.11269 | 36063 ft | 427 kts | 102° |
| 2026-04-28 20:34 | 42.24933 | 16.19135 | 36053 ft | 427 kts | 98° |
| 2026-04-28 20:35 | 42.24012 | 16.27051 | 36066 ft | 427 kts | 99° |
| 2026-04-28 20:35 | 42.22814 | 16.34869 | 36068 ft | 421 kts | 101° |
| 2026-04-28 20:36 | 42.21730 | 16.42612 | 36064 ft | 419 kts | 98° |
| 2026-04-28 20:36 | 42.20745 | 16.50353 | 36065 ft | 418 kts | 100° |
| 2026-04-28 20:37 | 42.19559 | 16.57984 | 36063 ft | 419 kts | 101° |
| 2026-04-28 20:37 | 42.18462 | 16.65710 | 35996 ft | 419 kts | 99° |
| 2026-04-28 20:37 | 42.17927 | 16.69548 | 35833 ft | 413 kts | 99° |
| 2026-04-28 20:38 | 42.17396 | 16.73335 | 35653 ft | 408 kts | 99° |
| 2026-04-28 20:38 | 42.16867 | 16.77082 | 35481 ft | 405 kts | 99° |
| 2026-04-28 20:38 | 42.16340 | 16.80801 | 35256 ft | 403 kts | 99° |
| 2026-04-28 20:38 | 42.15813 | 16.84515 | 34925 ft | 404 kts | 99° |
| 2026-04-28 20:39 | 42.15284 | 16.88272 | 34194 ft | 416 kts | 99° |
| 2026-04-28 20:39 | 42.14751 | 16.92087 | 33943 ft | 412 kts | 99° |
| 2026-04-28 20:39 | 42.14224 | 16.95865 | 33670 ft | 408 kts | 99° |
| 2026-04-28 20:39 | 42.13698 | 16.99614 | 33400 ft | 405 kts | 99° |
| 2026-04-28 20:40 | 42.13175 | 17.03338 | 33132 ft | 403 kts | 99° |
| 2026-04-28 20:40 | 42.12655 | 17.07028 | 32870 ft | 397 kts | 99° |
| 2026-04-28 20:40 | 42.12146 | 17.10615 | 32606 ft | 391 kts | 99° |
| 2026-04-28 20:40 | 42.11635 | 17.14199 | 32342 ft | 390 kts | 99° |
| 2026-04-28 20:41 | 42.11121 | 17.17794 | 32082 ft | 391 kts | 99° |
| 2026-04-28 20:41 | 42.10608 | 17.21398 | 31826 ft | 392 kts | 99° |
| 2026-04-28 20:41 | 42.10095 | 17.25018 | 31573 ft | 394 kts | 99° |
| 2026-04-28 20:41 | 42.09583 | 17.28645 | 31323 ft | 394 kts | 99° |
| 2026-04-28 20:42 | 42.09071 | 17.32282 | 31010 ft | 397 kts | 99° |
| 2026-04-28 20:42 | 42.08557 | 17.35951 | 30697 ft | 399 kts | 99° |
| 2026-04-28 20:42 | 42.08042 | 17.39630 | 30381 ft | 401 kts | 99° |
| 2026-04-28 20:42 | 42.07526 | 17.43324 | 30061 ft | 403 kts | 99° |
| 2026-04-28 20:43 | 42.07011 | 17.47035 | 29694 ft | 403 kts | 99° |
| 2026-04-28 20:43 | 42.06498 | 17.50749 | 29332 ft | 403 kts | 99° |
| 2026-04-28 20:43 | 42.05990 | 17.54460 | 28975 ft | 403 kts | 99° |
| 2026-04-28 20:43 | 42.05492 | 17.58122 | 28625 ft | 402 kts | 99° |
| 2026-04-28 20:44 | 42.04991 | 17.61818 | 28273 ft | 401 kts | 99° |
| 2026-04-28 20:44 | 42.04478 | 17.65510 | 27927 ft | 400 kts | 100° |
| 2026-04-28 20:44 | 42.03865 | 17.69159 | 27588 ft | 399 kts | 103° |
| 2026-04-28 20:44 | 42.03137 | 17.72752 | 27248 ft | 398 kts | 105° |
| 2026-04-28 20:45 | 42.02333 | 17.76298 | 26922 ft | 396 kts | 106° |
| 2026-04-28 20:45 | 42.01573 | 17.79850 | 26592 ft | 394 kts | 104° |
| 2026-04-28 20:45 | 42.00926 | 17.83416 | 26265 ft | 391 kts | 101° |
| 2026-04-28 20:45 | 42.00373 | 17.86954 | 25946 ft | 389 kts | 100° |
| 2026-04-28 20:46 | 41.99830 | 17.90508 | 25630 ft | 387 kts | 101° |
| 2026-04-28 20:46 | 41.99209 | 17.94025 | 25304 ft | 386 kts | 103° |
| 2026-04-28 20:46 | 41.98492 | 17.97493 | 25003 ft | 384 kts | 105° |
| 2026-04-28 20:46 | 41.97733 | 18.00933 | 24694 ft | 382 kts | 105° |
| 2026-04-28 20:47 | 41.97030 | 18.04360 | 24389 ft | 380 kts | 103° |
| 2026-04-28 20:47 | 41.96418 | 18.07814 | 24086 ft | 378 kts | 102° |
| 2026-04-28 20:47 | 41.95865 | 18.11253 | 23790 ft | 376 kts | 101° |
| 2026-04-28 20:47 | 41.95291 | 18.14672 | 23458 ft | 374 kts | 102° |
| 2026-04-28 20:48 | 41.94638 | 18.18058 | 23102 ft | 372 kts | 104° |
| 2026-04-28 20:48 | 41.93935 | 18.21356 | 22756 ft | 370 kts | 105° |
| 2026-04-28 20:48 | 41.93230 | 18.24676 | 22410 ft | 368 kts | 104° |
| 2026-04-28 20:48 | 41.92591 | 18.27994 | 22062 ft | 366 kts | 103° |
| 2026-04-28 20:49 | 41.92016 | 18.31311 | 21731 ft | 364 kts | 102° |
| 2026-04-28 20:49 | 41.91457 | 18.34624 | 21393 ft | 362 kts | 102° |
| 2026-04-28 20:49 | 41.90856 | 18.37902 | 21064 ft | 360 kts | 104° |
| 2026-04-28 20:49 | 41.90198 | 18.41134 | 20738 ft | 358 kts | 105° |
| 2026-04-28 20:50 | 41.89518 | 18.44332 | 20423 ft | 356 kts | 105° |
| 2026-04-28 20:50 | 41.88872 | 18.47494 | 20107 ft | 354 kts | 104° |
| 2026-04-28 20:50 | 41.88277 | 18.50685 | 19790 ft | 352 kts | 103° |
| 2026-04-28 20:50 | 41.87719 | 18.53878 | 19478 ft | 350 kts | 102° |
| 2026-04-28 20:51 | 41.87153 | 18.57049 | 19162 ft | 349 kts | 103° |
| 2026-04-28 20:51 | 41.86544 | 18.60189 | 18835 ft | 344 kts | 104° |
| 2026-04-28 20:51 | 41.85896 | 18.63264 | 18506 ft | 337 kts | 105° |
| 2026-04-28 20:51 | 41.85470 | 18.65239 | 18276 ft | 330 kts | 105° |
| 2026-04-28 20:52 | 41.84682 | 18.69136 | 17768 ft | 318 kts | 103° |
| 2026-04-28 20:52 | 41.84173 | 18.71985 | 17403 ft | 311 kts | 103° |
| 2026-04-28 20:52 | 41.83682 | 18.74786 | 17027 ft | 305 kts | 103° |
| 2026-04-28 20:52 | 41.83160 | 18.77519 | 16662 ft | 300 kts | 105° |
| 2026-04-28 20:53 | 41.82054 | 18.82869 | 15966 ft | 304 kts | 105° |
| 2026-04-28 20:53 | 41.81524 | 18.85627 | 15626 ft | 308 kts | 104° |
| 2026-04-28 20:53 | 41.81008 | 18.88428 | 15282 ft | 310 kts | 104° |
| 2026-04-28 20:54 | 41.80657 | 18.90301 | 15057 ft | 311 kts | 105° |
| 2026-04-28 20:54 | 41.80105 | 18.93118 | 14722 ft | 312 kts | 105° |
| 2026-04-28 20:54 | 41.79530 | 18.95925 | 14391 ft | 312 kts | 106° |
| 2026-04-28 20:54 | 41.78773 | 18.99642 | 13962 ft | 312 kts | 106° |
| 2026-04-28 20:55 | 41.78218 | 19.02450 | 13597 ft | 312 kts | 105° |
| 2026-04-28 20:55 | 41.77668 | 19.05265 | 13230 ft | 313 kts | 105° |
| 2026-04-28 20:55 | 41.77295 | 19.07175 | 12983 ft | 314 kts | 105° |
| 2026-04-28 20:55 | 41.76738 | 19.10006 | 12621 ft | 314 kts | 105° |
| 2026-04-28 20:56 | 41.76172 | 19.12834 | 12266 ft | 314 kts | 106° |
| 2026-04-28 20:56 | 41.75606 | 19.15653 | 11913 ft | 313 kts | 106° |
| 2026-04-28 20:56 | 41.75039 | 19.18475 | 11560 ft | 313 kts | 106° |
| 2026-04-28 20:56 | 41.74487 | 19.21245 | 11219 ft | 312 kts | 106° |
| 2026-04-28 20:57 | 41.73933 | 19.24043 | 10874 ft | 310 kts | 106° |
| 2026-04-28 20:57 | 41.73379 | 19.26841 | 10536 ft | 309 kts | 106° |
| 2026-04-28 20:57 | 41.72835 | 19.29574 | 10198 ft | 296 kts | 106° |
| 2026-04-28 20:57 | 41.72312 | 19.32161 | 9851 ft | 280 kts | 107° |
| 2026-04-28 20:58 | 41.71807 | 19.34478 | 9463 ft | 238 kts | 108° |
| 2026-04-28 20:58 | 41.71364 | 19.36476 | 8991 ft | 213 kts | 107° |
| 2026-04-28 20:58 | 41.71011 | 19.38359 | 8518 ft | 206 kts | 104° |
| 2026-04-28 20:58 | 41.70686 | 19.40210 | 8061 ft | 203 kts | 104° |
| 2026-04-28 20:59 | 41.70338 | 19.42024 | 7608 ft | 200 kts | 106° |
| 2026-04-28 20:59 | 41.69969 | 19.43813 | 7163 ft | 198 kts | 106° |
| 2026-04-28 20:59 | 41.69607 | 19.45556 | 6733 ft | 196 kts | 106° |
| 2026-04-28 20:59 | 41.69250 | 19.47316 | 6297 ft | 195 kts | 105° |
| 2026-04-28 21:00 | 41.68902 | 19.49053 | 5845 ft | 187 kts | 105° |
| 2026-04-28 21:00 | 41.68577 | 19.50670 | 5386 ft | 174 kts | 105° |
| 2026-04-28 21:00 | 41.68264 | 19.52211 | 4941 ft | 169 kts | 105° |
| 2026-04-28 21:00 | 41.67959 | 19.53719 | 4488 ft | 166 kts | 105° |
| 2026-04-28 21:01 | 41.67659 | 19.55209 | 4053 ft | 164 kts | 105° |
| 2026-04-28 21:01 | 41.67378 | 19.56596 | 3993 ft | 145 kts | 105° |
| 2026-04-28 21:01 | 41.67118 | 19.57869 | 3991 ft | 149 kts | 106° |
| 2026-04-28 21:01 | 41.66842 | 19.59216 | 3992 ft | 151 kts | 105° |
| 2026-04-28 21:02 | 41.66553 | 19.60639 | 3995 ft | 165 kts | 105° |
| 2026-04-28 21:02 | 41.66243 | 19.62160 | 4005 ft | 173 kts | 105° |
| 2026-04-28 21:02 | 41.65923 | 19.63741 | 4007 ft | 179 kts | 106° |
| 2026-04-28 21:02 | 41.65597 | 19.65340 | 4007 ft | 182 kts | 106° |
| 2026-04-28 21:03 | 41.65272 | 19.66982 | 4015 ft | 183 kts | 107° |
| 2026-04-28 21:03 | 41.64509 | 19.68279 | 3994 ft | 178 kts | 149° |
| 2026-04-28 21:03 | 41.63448 | 19.68962 | 4001 ft | 162 kts | 160° |
| 2026-04-28 21:03 | 41.62378 | 19.69310 | 3998 ft | 155 kts | 173° |
| 2026-04-28 21:04 | 41.61318 | 19.69440 | 3996 ft | 151 kts | 177° |
| 2026-04-28 21:04 | 41.60276 | 19.69550 | 4000 ft | 150 kts | 176° |
| 2026-04-28 21:04 | 41.59241 | 19.69683 | 4004 ft | 149 kts | 175° |
| 2026-04-28 21:04 | 41.58256 | 19.69824 | 3991 ft | 137 kts | 173° |
| 2026-04-28 21:05 | 41.57310 | 19.69975 | 3872 ft | 137 kts | 173° |
| 2026-04-28 21:05 | 41.56365 | 19.70179 | 3683 ft | 140 kts | 173° |
| 2026-04-28 21:05 | 41.55371 | 19.70241 | 3270 ft | 149 kts | 185° |
| 2026-04-28 21:05 | 41.54348 | 19.70213 | 2997 ft | 146 kts | 175° |
| 2026-04-28 21:06 | 41.53354 | 19.70418 | 2747 ft | 144 kts | 171° |
| 2026-04-28 21:06 | 41.52350 | 19.70634 | 2402 ft | 147 kts | 172° |
| 2026-04-28 21:06 | 41.51342 | 19.70808 | 2078 ft | 147 kts | 174° |
| 2026-04-28 21:06 | 41.50339 | 19.70922 | 1743 ft | 146 kts | 176° |
| 2026-04-28 21:07 | 41.49298 | 19.70997 | 1381 ft | 150 kts | 177° |
| 2026-04-28 21:07 | 41.48290 | 19.71106 | 1094 ft | 145 kts | 173° |
| 2026-04-28 21:07 | 41.47291 | 19.71275 | 890 ft | 144 kts | 173° |
| 2026-04-28 21:07 | 41.46300 | 19.71406 | 674 ft | 142 kts | 175° |
| 2026-04-28 21:08 | 41.45304 | 19.71531 | 677 ft | 144 kts | 174° |
| 2026-04-28 21:08 | 41.44326 | 19.71686 | 494 ft | 141 kts | 174° |
| 2026-04-28 21:08 | 41.43357 | 19.71812 | 275 ft | 138 kts | 175° |
| 2026-04-28 21:08 | 41.42437 | 19.71933 | 111 ft | 116 kts | 174° |
| 2026-04-28 21:09 | 41.41841 | 19.72009 | 114 ft | 51 kts | 174° |
| 2026-04-28 21:09 | 41.41490 | 19.72055 | 116 ft | 48 kts | 174° |
| 2026-04-28 21:09 | 41.41231 | 19.72088 | 118 ft | 41 kts | 174° |
| 2026-04-28 21:09 | 41.41017 | 19.72118 | 121 ft | 29 kts | 174° |
| 2026-04-28 21:10 | 41.40808 | 19.72147 | 122 ft | 31 kts | 174° |
| 2026-04-28 21:10 | 41.40686 | 19.72109 | 123 ft | 16 kts | 251° |
| 2026-04-28 21:10 | 41.40674 | 19.72051 | 119 ft | 0 kts | 256° |
| 2026-04-28 21:11 | 41.40673 | 19.72046 | 122 ft | 5 kts | 257° |
| 2026-04-28 21:11 | 41.40660 | 19.71969 | 120 ft | 11 kts | 257° |
| 2026-04-28 21:11 | 41.40641 | 19.71858 | 122 ft | 13 kts | 257° |
| 2026-04-28 21:11 | 41.40683 | 19.71771 | 121 ft | 14 kts | 351° |
| 2026-04-28 21:12 | 41.40788 | 19.71754 | 120 ft | 16 kts | 351° |
| 2026-04-28 21:12 | 41.40876 | 19.71733 | 119 ft | 0 kts | 349° |
| 2026-04-28 21:13 | 41.40891 | 19.71729 | 119 ft | 6 kts | 350° |
| 2026-04-28 21:13 | 41.40958 | 19.71714 | 118 ft | 12 kts | 351° |
| 2026-04-28 21:13 | 41.41047 | 19.71700 | 118 ft | 14 kts | 354° |
| 2026-04-28 21:13 | 41.41150 | 19.71687 | 118 ft | 16 kts | 354° |
| 2026-04-28 21:14 | 41.41263 | 19.71672 | 116 ft | 17 kts | 354° |
| 2026-04-28 21:14 | 41.41387 | 19.71656 | 115 ft | 19 kts | 354° |
| 2026-04-28 21:14 | 41.41521 | 19.71638 | 115 ft | 20 kts | 354° |
| 2026-04-28 21:14 | 41.41661 | 19.71618 | 115 ft | 21 kts | 354° |
| 2026-04-28 21:15 | 41.41810 | 19.71598 | 114 ft | 22 kts | 354° |
| 2026-04-28 21:15 | 41.41965 | 19.71579 | 113 ft | 23 kts | 354° |
| 2026-04-28 21:15 | 41.42062 | 19.71564 | 112 ft | 7 kts | 350° |
| 2026-04-28 21:15 | 41.42108 | 19.71530 | 112 ft | 9 kts | 285° |
| 2026-04-28 21:16 | 41.42107 | 19.71492 | 112 ft | 1 kts | 262° |
| 2026-04-28 21:16 | 41.42106 | 19.71482 | 112 ft | 0 kts | 265° |